createdAt,value
2022-12-15T00:05:23.291Z,0
2022-12-15T00:11:23.280Z,0
2022-12-15T00:17:23.245Z,0
2022-12-15T00:23:23.292Z,0
2022-12-15T00:29:23.258Z,0
2022-12-15T00:35:23.252Z,0
2022-12-15T00:41:23.288Z,0
2022-12-15T00:47:23.268Z,0
2022-12-15T00:53:23.252Z,0
2022-12-15T00:59:23.319Z,0
2022-12-15T01:05:23.245Z,0
2022-12-15T01:11:23.240Z,0
2022-12-15T01:17:23.320Z,0
2022-12-15T01:23:23.255Z,0
2022-12-15T01:29:23.270Z,0
2022-12-15T01:35:23.379Z,0
2022-12-15T01:41:23.235Z,0
2022-12-15T01:47:23.249Z,0
2022-12-15T01:53:23.299Z,0
2022-12-15T01:59:23.248Z,0
2022-12-15T02:05:23.234Z,0
2022-12-15T02:11:23.289Z,0
2022-12-15T02:17:23.234Z,0
2022-12-15T02:23:23.232Z,0
2022-12-15T02:29:23.241Z,0
2022-12-15T02:35:23.226Z,0
2022-12-15T02:41:23.230Z,0
2022-12-15T02:47:23.286Z,0
2022-12-15T02:53:23.232Z,0
2022-12-15T02:59:23.219Z,0
2022-12-15T03:05:23.227Z,0
2022-12-15T03:11:23.215Z,0
2022-12-15T03:17:23.226Z,0
2022-12-15T03:23:23.235Z,0
2022-12-15T03:29:23.203Z,0
2022-12-15T03:35:23.204Z,0
2022-12-15T03:41:23.241Z,0
2022-12-15T03:47:23.218Z,0
2022-12-15T03:53:23.203Z,0
2022-12-15T03:59:23.251Z,0
2022-12-15T04:05:23.220Z,0
2022-12-15T04:11:23.202Z,0
2022-12-15T04:17:23.259Z,0
2022-12-15T04:23:23.212Z,0
2022-12-15T04:29:23.193Z,0
2022-12-15T04:35:23.228Z,0
2022-12-15T04:41:23.212Z,0
2022-12-15T04:47:23.182Z,0
2022-12-15T04:53:23.309Z,0
2022-12-15T04:59:23.232Z,0
2022-12-15T05:05:23.278Z,0
2022-12-15T05:11:23.220Z,0
2022-12-15T05:17:23.257Z,0
2022-12-15T05:23:23.208Z,0
2022-12-15T05:29:23.215Z,0
2022-12-15T05:35:23.192Z,0
2022-12-15T05:41:23.184Z,0
2022-12-15T05:47:23.224Z,0
2022-12-15T05:53:23.180Z,0
2022-12-15T05:59:23.192Z,0
2022-12-15T06:05:23.201Z,0
2022-12-15T06:11:23.174Z,0
2022-12-15T06:17:23.188Z,0
2022-12-15T06:23:23.227Z,0
2022-12-15T06:29:23.180Z,0
2022-12-15T06:35:23.212Z,0
2022-12-15T06:41:23.199Z,0
2022-12-15T06:47:23.165Z,0
2022-12-15T06:53:23.171Z,0
2022-12-15T06:59:23.217Z,0
2022-12-15T07:05:23.178Z,0
2022-12-15T07:11:23.171Z,0
2022-12-15T07:17:23.178Z,0
2022-12-15T07:23:45.971Z,0
2022-12-15T07:29:23.852Z,0
2022-12-15T07:35:23.196Z,0
2022-12-15T07:41:23.167Z,0
2022-12-15T07:47:23.205Z,0
2022-12-15T07:53:23.268Z,0
2022-12-15T07:59:23.162Z,0
2022-12-15T08:05:23.164Z,0
2022-12-15T08:11:23.185Z,0
2022-12-15T08:17:23.124Z,0
2022-12-15T08:23:23.145Z,0
2022-12-15T08:29:52.211Z,0
2022-12-15T08:35:54.673Z,0
2022-12-15T08:41:23.191Z,0
2022-12-15T08:47:23.161Z,0
2022-12-15T08:53:31.840Z,0
2022-12-15T08:59:23.149Z,0
2022-12-15T09:05:23.163Z,0
2022-12-15T09:11:23.142Z,0
2022-12-15T09:17:23.179Z,0
2022-12-15T09:23:23.179Z,0
2022-12-15T09:29:23.129Z,0
2022-12-15T09:35:23.142Z,0
2022-12-15T09:41:23.159Z,0
2022-12-15T09:47:23.117Z,0
2022-12-15T09:53:53.610Z,0.1
2022-12-15T09:59:23.164Z,0.4
2022-12-15T10:05:29.808Z,0.6
2022-12-15T10:11:23.104Z,0.8
2022-12-15T10:17:23.152Z,0.7
2022-12-15T10:23:23.149Z,0.9
2022-12-15T10:29:23.243Z,0.6
2022-12-15T10:35:23.272Z,1
2022-12-15T10:41:23.102Z,1.2
2022-12-15T10:47:23.117Z,1
2022-12-15T10:53:23.245Z,0.9
2022-12-15T10:59:23.106Z,0.8
2022-12-15T11:05:23.108Z,0.8
2022-12-15T11:11:26.146Z,1
2022-12-15T11:17:23.139Z,0.9
2022-12-15T11:23:23.134Z,1.1
2022-12-15T11:29:23.126Z,1.2
2022-12-15T11:35:23.130Z,0.9
2022-12-15T11:41:23.088Z,0.8
2022-12-15T11:47:23.099Z,0.7
2022-12-15T11:53:23.096Z,0.9
2022-12-15T11:59:23.112Z,0.9
2022-12-15T12:05:23.112Z,0.9
2022-12-15T12:11:23.112Z,1
2022-12-15T12:17:23.119Z,1
2022-12-15T12:23:23.122Z,0.9
2022-12-15T12:29:23.089Z,1.5
2022-12-15T12:35:31.311Z,1.8
2022-12-15T12:41:23.113Z,2
2022-12-15T12:47:23.103Z,2.1
2022-12-15T12:53:23.101Z,2.9
2022-12-15T12:59:23.102Z,2.6
2022-12-15T13:05:23.087Z,2.8
2022-12-15T13:11:23.070Z,2.8
2022-12-15T13:17:27.473Z,2
2022-12-15T13:23:23.100Z,1.7
2022-12-15T13:29:23.062Z,1.4
2022-12-15T13:35:23.108Z,1.6
2022-12-15T13:41:23.117Z,1.7
2022-12-15T13:47:23.072Z,1.4
2022-12-15T13:53:23.118Z,1.2
2022-12-15T13:59:23.086Z,0.9
2022-12-15T14:05:23.064Z,0.8
2022-12-15T14:11:51.476Z,0.7
2022-12-15T14:17:23.097Z,0.6
2022-12-15T14:23:23.050Z,0.6
2022-12-15T14:29:23.106Z,0.3
2022-12-15T14:35:23.063Z,0.2
2022-12-15T14:41:23.040Z,0.2
2022-12-15T14:47:23.146Z,0.4
2022-12-15T14:53:23.071Z,0.2
2022-12-15T14:59:23.052Z,0.4
2022-12-15T15:05:23.148Z,0.2
2022-12-15T15:11:23.085Z,0
2022-12-15T15:17:23.063Z,0
2022-12-15T15:23:23.068Z,0
2022-12-15T15:29:23.040Z,0
2022-12-15T15:35:23.044Z,0
2022-12-15T15:41:23.078Z,0
2022-12-15T15:47:23.051Z,0
2022-12-15T15:53:23.036Z,0
2022-12-15T15:59:23.130Z,0
2022-12-15T16:05:23.038Z,0
2022-12-15T16:11:23.025Z,0
2022-12-15T16:17:23.061Z,0
2022-12-15T16:23:23.267Z,0
2022-12-15T16:29:23.038Z,0
2022-12-15T16:35:23.102Z,0
2022-12-15T16:41:23.013Z,0
2022-12-15T16:47:23.014Z,0
2022-12-15T16:53:23.065Z,0
2022-12-15T16:59:33.040Z,0
2022-12-15T17:05:23.027Z,0
2022-12-15T17:11:23.089Z,0
2022-12-15T17:17:23.035Z,0
2022-12-15T17:23:23.023Z,0
2022-12-15T17:29:23.114Z,0
2022-12-15T17:35:23.140Z,0
2022-12-15T17:41:42.734Z,0
2022-12-15T17:47:23.017Z,0
2022-12-15T17:53:23.039Z,0
2022-12-15T17:59:23.036Z,0
2022-12-15T18:05:23.037Z,0
2022-12-15T18:11:23.075Z,0
2022-12-15T18:17:23.008Z,0
2022-12-15T18:23:23.055Z,0
2022-12-15T18:29:22.986Z,0
2022-12-15T18:35:23.021Z,0
2022-12-15T18:41:23.015Z,0
2022-12-15T18:47:23.260Z,0
2022-12-15T18:53:23.000Z,0
2022-12-15T18:59:23.031Z,0
2022-12-15T19:05:23.016Z,0
2022-12-15T19:11:23.033Z,0
2022-12-15T19:17:23.015Z,0
2022-12-15T19:23:22.997Z,0
2022-12-15T19:29:23.009Z,0
2022-12-15T19:35:23.038Z,0
2022-12-15T19:41:22.988Z,0
2022-12-15T19:47:22.983Z,0
2022-12-15T19:53:23.032Z,0
2022-12-15T19:59:22.993Z,0
2022-12-15T20:05:22.998Z,0
2022-12-15T20:11:22.994Z,0
2022-12-15T20:17:22.977Z,0
2022-12-15T20:23:23.056Z,0
2022-12-15T20:29:23.010Z,0
2022-12-15T20:35:22.987Z,0
2022-12-15T20:41:22.971Z,0
2022-12-15T20:47:23.019Z,0
2022-12-15T20:53:22.970Z,0
2022-12-15T20:59:22.978Z,0
2022-12-15T21:05:23.000Z,0
2022-12-15T21:11:22.964Z,0
2022-12-15T21:17:22.958Z,0
2022-12-15T21:23:23.058Z,0
2022-12-15T21:29:22.967Z,0
2022-12-15T21:35:26.142Z,0
2022-12-15T21:41:23.000Z,0
2022-12-15T21:47:22.929Z,0
2022-12-15T21:53:22.974Z,0
2022-12-15T21:59:23.055Z,0
2022-12-15T22:05:22.929Z,0
2022-12-15T22:11:23.158Z,0
2022-12-15T22:17:22.986Z,0
2022-12-15T22:23:22.937Z,0
2022-12-15T22:29:22.949Z,0
2022-12-15T22:35:22.958Z,0
2022-12-15T22:41:22.949Z,0
2022-12-15T22:47:22.918Z,0
2022-12-15T22:53:22.976Z,0
2022-12-15T22:59:22.929Z,0
2022-12-15T23:05:22.923Z,0
2022-12-15T23:11:22.975Z,0
2022-12-15T23:17:22.911Z,0
2022-12-15T23:23:22.928Z,0
2022-12-15T23:29:22.963Z,0
2022-12-15T23:35:22.951Z,0
2022-12-15T23:41:22.927Z,0
2022-12-15T23:47:22.947Z,0
2022-12-15T23:53:22.930Z,0
2022-12-15T23:59:22.888Z,0
